Time;durP1;ratioP1;P1;durP2;ratioP2;P2;SDS_P1;SDS_P2;PMS_P1;PMS_P2;Temp;Humidity;BMP_temperature;BMP_pressure;BME280_temperature;BME280_humidity;BME280_pressure;Samples;Min_cycle;Max_cycle;Signal;HPM_P1;HPM_P2
2022/04/04 00:01:53;;;;;;;10.60;6.82;;;;;;;;;;4999443;28;20041;-82
2022/04/04 00:04:18;;;;;;;11.63;6.30;;;;;;;;;;4998422;28;20108;-81
2022/04/04 00:06:44;;;;;;;10.55;6.68;;;;;;;;;;4999461;28;20026;-81
2022/04/04 00:09:09;;;;;;;10.98;6.80;;;;;;;;;;4998039;28;20065;-82
2022/04/04 00:11:35;;;;;;;13.05;6.40;;;;;;;;;;4998958;28;20030;-81
2022/04/04 00:14:00;;;;;;;10.50;6.40;;;;;;;;;;4998423;28;20490;-81
2022/04/04 00:16:25;;;;;;;8.23;5.90;;;;;;;;;;4997278;28;20041;-82
2022/04/04 00:18:50;;;;;;;9.70;5.95;;;;;;;;;;4999731;28;20065;-82
2022/04/04 00:21:16;;;;;;;11.43;6.25;;;;;;;;;;4997459;28;20042;-81
2022/04/04 00:23:42;;;;;;;9.57;6.00;;;;;;;;;;4997673;28;20038;-81
2022/04/04 00:26:07;;;;;;;8.68;5.65;;;;;;;;;;4997448;28;20038;-81
2022/04/04 00:28:32;;;;;;;10.48;6.47;;;;;;;;;;4998635;28;20426;-81
2022/04/04 00:30:57;;;;;;;11.88;6.60;;;;;;;;;;4998630;28;20042;-81
2022/04/04 00:33:23;;;;;;;9.73;6.13;;;;;;;;;;4980838;28;20133;-81
2022/04/04 00:35:48;;;;;;;9.73;6.50;;;;;;;;;;4980950;28;20030;-82
2022/04/04 00:38:14;;;;;;;10.80;6.53;;;;;;;;;;4998213;28;20034;-81
2022/04/04 00:40:40;;;;;;;9.98;6.35;;;;;;;;;;4996799;28;20046;-81
2022/04/04 00:43:05;;;;;;;10.68;6.63;;;;;;;;;;4997442;28;20089;-81
2022/04/04 00:45:30;;;;;;;10.07;6.63;;;;;;;;;;4998310;28;20124;-81
2022/04/04 00:47:55;;;;;;;10.55;6.38;;;;;;;;;;4997697;28;20034;-81
2022/04/04 00:50:22;;;;;;;10.88;6.28;;;;;;;;;;4997889;28;20034;-81
2022/04/04 00:52:47;;;;;;;11.20;6.38;;;;;;;;;;4998547;28;20125;-81
2022/04/04 00:55:13;;;;;;;11.65;7.03;;;;;;;;;;4997637;28;20507;-81
2022/04/04 00:57:38;;;;;;;9.77;6.75;;;;;;;;;;4980625;28;20053;-81
2022/04/04 01:00:05;;;;;;;11.50;6.85;;;;;;;;;;4997086;28;20057;-82
2022/04/04 01:02:30;;;;;;;11.90;7.45;;;;;;;;;;4998135;28;20368;-80
2022/04/04 01:04:56;;;;;;;11.32;7.53;;;;;;;;;;4997797;28;20030;-81
2022/04/04 01:07:21;;;;;;;12.15;7.43;;;;;;;;;;4998068;28;20117;-81
2022/04/04 01:09:47;;;;;;;11.20;7.55;;;;;;;;;;4998170;28;20483;-81
2022/04/04 01:12:13;;;;;;;9.63;6.68;;;;;;;;;;4998211;28;20134;-81
2022/04/04 01:14:38;;;;;;;11.70;6.82;;;;;;;;;;4997625;28;20065;-82
2022/04/04 01:17:03;;;;;;;9.35;5.97;;;;;;;;;;4996328;28;20038;-81
2022/04/04 01:19:28;;;;;;;11.13;6.53;;;;;;;;;;4996861;28;20045;-82
2022/04/04 01:21:54;;;;;;;9.82;6.40;;;;;;;;;;4999269;28;20058;-82
2022/04/04 01:24:19;;;;;;;11.02;6.80;;;;;;;;;;4996149;28;20490;-81
2022/04/04 01:26:44;;;;;;;11.68;6.75;;;;;;;;;;4996649;28;20113;-82
2022/04/04 01:29:10;;;;;;;10.43;6.22;;;;;;;;;;4997802;28;20537;-82
2022/04/04 01:31:35;;;;;;;9.40;6.13;;;;;;;;;;4996255;28;20040;-81
2022/04/04 01:34:00;;;;;;;10.43;6.10;;;;;;;;;;4996001;28;20602;-81
2022/04/04 01:36:26;;;;;;;8.02;5.40;;;;;;;;;;4996591;28;20383;-82
2022/04/04 01:38:51;;;;;;;7.70;5.18;;;;;;;;;;4997828;28;20040;-82
2022/04/04 01:41:17;;;;;;;9.50;5.57;;;;;;;;;;4997411;28;20564;-82
2022/04/04 01:43:42;;;;;;;8.57;5.97;;;;;;;;;;4996410;28;20038;-83
2022/04/04 01:46:29;;;;;;;7.35;5.05;;;;;;;;;;4996066;28;20088;-83
2022/04/04 01:48:55;;;;;;;11.85;5.93;;;;;;;;;;4995593;28;20119;-83
2022/04/04 01:51:20;;;;;;;9.15;6.10;;;;;;;;;;4997029;28;20066;-82
2022/04/04 01:53:45;;;;;;;10.27;6.15;;;;;;;;;;4996649;28;20045;-82
2022/04/04 01:56:11;;;;;;;10.38;6.13;;;;;;;;;;4996800;28;20030;-81
2022/04/04 01:58:36;;;;;;;9.90;5.70;;;;;;;;;;4996667;28;20042;-82
2022/04/04 02:01:01;;;;;;;10.50;6.50;;;;;;;;;;4995809;28;20166;-82
2022/04/04 02:03:28;;;;;;;10.88;6.68;;;;;;;;;;4995595;28;20419;-83
2022/04/04 02:05:53;;;;;;;8.95;6.15;;;;;;;;;;5008025;23;20053;-81
2022/04/04 02:08:19;;;;;;;10.93;5.80;;;;;;;;;;4997003;28;20041;-81
2022/04/04 02:10:44;;;;;;;11.95;6.80;;;;;;;;;;5014633;28;20069;-81
2022/04/04 02:13:09;;;;;;;8.82;5.85;;;;;;;;;;5014358;28;20106;-81
2022/04/04 02:15:35;;;;;;;12.43;6.55;;;;;;;;;;5018007;28;20029;-81
2022/04/04 02:18:00;;;;;;;11.85;7.00;;;;;;;;;;5034237;28;21139;-81
2022/04/04 02:20:25;;;;;;;11.02;6.30;;;;;;;;;;5033435;28;20303;-81
2022/04/04 02:22:50;;;;;;;11.73;5.85;;;;;;;;;;5032979;28;20485;-81
2022/04/04 02:25:17;;;;;;;10.90;5.80;;;;;;;;;;5032527;28;20029;-81
2022/04/04 02:27:42;;;;;;;10.70;5.72;;;;;;;;;;5033938;28;20038;-81
2022/04/04 02:30:07;;;;;;;9.63;5.95;;;;;;;;;;5032851;28;20033;-81
2022/04/04 02:32:33;;;;;;;10.23;6.65;;;;;;;;;;5032240;28;20083;-80
2022/04/04 02:34:58;;;;;;;9.85;5.38;;;;;;;;;;5033281;28;20517;-80
2022/04/04 02:37:23;;;;;;;8.75;5.72;;;;;;;;;;5032870;28;20053;-80
2022/04/04 02:39:49;;;;;;;11.77;6.22;;;;;;;;;;5032919;28;20041;-80
2022/04/04 02:42:14;;;;;;;9.35;5.57;;;;;;;;;;5032635;28;20024;-80
2022/04/04 02:44:39;;;;;;;9.70;5.85;;;;;;;;;;5032592;28;20040;-80
2022/04/04 02:47:04;;;;;;;10.18;5.70;;;;;;;;;;5033579;28;20434;-80
2022/04/04 02:49:30;;;;;;;10.75;5.57;;;;;;;;;;5032603;28;20061;-80
2022/04/04 02:51:57;;;;;;;8.45;5.30;;;;;;;;;;5034080;28;20083;-81
2022/04/04 02:54:22;;;;;;;13.75;6.18;;;;;;;;;;5032612;28;20402;-81
2022/04/04 02:56:47;;;;;;;12.77;5.60;;;;;;;;;;5033590;28;20045;-81
2022/04/04 02:59:13;;;;;;;8.98;6.13;;;;;;;;;;5033755;28;20112;-81
2022/04/04 03:01:38;;;;;;;10.07;5.88;;;;;;;;;;5032483;28;20048;-80
2022/04/04 03:04:03;;;;;;;10.02;5.78;;;;;;;;;;5033110;28;20032;-81
2022/04/04 03:06:28;;;;;;;10.88;5.63;;;;;;;;;;5033453;28;20586;-80
2022/04/04 03:08:54;;;;;;;10.38;5.53;;;;;;;;;;5032112;28;20042;-80
2022/04/04 03:11:19;;;;;;;15.05;6.43;;;;;;;;;;5033290;28;20038;-81
2022/04/04 03:13:44;;;;;;;8.52;5.93;;;;;;;;;;5033508;28;20072;-81
2022/04/04 03:16:10;;;;;;;9.27;5.78;;;;;;;;;;5031860;28;20072;-80
2022/04/04 03:18:35;;;;;;;8.02;5.35;;;;;;;;;;5033170;28;20064;-81
2022/04/04 03:21:00;;;;;;;8.30;5.22;;;;;;;;;;5031895;28;20044;-80
2022/04/04 03:23:27;;;;;;;10.82;6.22;;;;;;;;;;5034023;28;20551;-80
2022/04/04 03:25:54;;;;;;;11.13;6.43;;;;;;;;;;5037308;28;20030;-80
2022/04/04 03:28:19;;;;;;;10.35;6.50;;;;;;;;;;5038062;28;20033;-80
2022/04/04 03:30:44;;;;;;;10.27;5.90;;;;;;;;;;5037607;28;20122;-80
2022/04/04 03:33:09;;;;;;;9.75;6.30;;;;;;;;;;5037206;28;20049;-81
2022/04/04 03:35:35;;;;;;;9.32;5.72;;;;;;;;;;5036696;28;20033;-81
2022/04/04 03:38:00;;;;;;;8.98;5.88;;;;;;;;;;5035297;28;20042;-81
2022/04/04 03:40:26;;;;;;;10.43;6.00;;;;;;;;;;5037202;28;20041;-81
2022/04/04 03:42:51;;;;;;;8.60;5.78;;;;;;;;;;5037580;28;20029;-81
2022/04/04 03:45:16;;;;;;;8.68;5.47;;;;;;;;;;5035657;28;20033;-80
2022/04/04 03:47:42;;;;;;;9.80;6.13;;;;;;;;;;5037190;28;20037;-81
2022/04/04 03:50:07;;;;;;;9.77;6.20;;;;;;;;;;5036900;28;20045;-81
2022/04/04 03:52:32;;;;;;;8.10;5.72;;;;;;;;;;5036309;28;20029;-81
2022/04/04 03:54:57;;;;;;;9.00;6.07;;;;;;;;;;5036597;28;20072;-81
2022/04/04 03:57:23;;;;;;;8.07;5.80;;;;;;;;;;5036656;28;20374;-80
2022/04/04 03:59:48;;;;;;;10.48;6.57;;;;;;;;;;5036851;28;20029;-80
2022/04/04 04:02:13;;;;;;;10.32;6.53;;;;;;;;;;5035766;28;20041;-80
2022/04/04 04:04:38;;;;;;;10.05;6.53;;;;;;;;;;5036698;28;20033;-81
2022/04/04 04:07:03;;;;;;;8.13;5.70;;;;;;;;;;5036447;28;20033;-81
2022/04/04 04:09:29;;;;;;;8.90;6.22;;;;;;;;;;5036487;28;20109;-81
2022/04/04 04:11:55;;;;;;;11.82;6.05;;;;;;;;;;5035342;28;20106;-81
2022/04/04 04:14:21;;;;;;;9.73;6.57;;;;;;;;;;5036435;28;20042;-80
2022/04/04 04:16:46;;;;;;;9.50;6.53;;;;;;;;;;5036589;28;20099;-80
2022/04/04 04:20:19;;;;;;;9.75;5.90;;;;;;;;;;5036471;28;20063;-79
2022/04/04 04:21:57;;;;;;;9.52;6.05;;;;;;;;;;5036587;28;20144;-80
2022/04/04 04:24:22;;;;;;;9.38;5.93;;;;;;;;;;5034911;28;20029;-80
2022/04/04 04:26:47;;;;;;;9.55;6.03;;;;;;;;;;5036428;28;20041;-81
2022/04/04 04:29:13;;;;;;;10.38;6.20;;;;;;;;;;5035503;28;20045;-81
2022/04/04 04:31:38;;;;;;;8.50;6.00;;;;;;;;;;5035926;28;20048;-80
2022/04/04 04:34:03;;;;;;;9.93;6.03;;;;;;;;;;5035809;28;20037;-80
2022/04/04 04:36:28;;;;;;;10.38;6.10;;;;;;;;;;5035258;28;20136;-81
2022/04/04 04:38:54;;;;;;;9.63;6.07;;;;;;;;;;5035898;28;20536;-81
2022/04/04 04:41:19;;;;;;;35.78;14.27;;;;;;;;;;5035907;28;20112;-81
2022/04/04 04:43:44;;;;;;;29.70;15.45;;;;;;;;;;5035677;28;20429;-81
2022/04/04 04:46:09;;;;;;;55.30;25.52;;;;;;;;;;5034856;28;20039;-81
2022/04/04 04:48:35;;;;;;;54.05;28.15;;;;;;;;;;5035685;28;20033;-81
2022/04/04 04:51:00;;;;;;;17.15;10.65;;;;;;;;;;5035689;28;20033;-81
2022/04/04 04:53:25;;;;;;;14.02;9.57;;;;;;;;;;5035421;28;20644;-80
2022/04/04 04:55:51;;;;;;;13.70;7.75;;;;;;;;;;5033677;28;20063;-80
2022/04/04 04:58:16;;;;;;;11.43;7.25;;;;;;;;;;5035417;28;20090;-81
2022/04/04 05:00:41;;;;;;;10.32;6.63;;;;;;;;;;5033652;28;20401;-81
2022/04/04 05:03:25;;;;;;;12.00;7.55;;;;;;;;;;5035420;28;20033;-81
2022/04/04 05:05:50;;;;;;;9.80;5.88;;;;;;;;;;5034036;28;20539;-80
2022/04/04 05:08:15;;;;;;;11.13;6.70;;;;;;;;;;5033859;28;20041;-80
2022/04/04 05:10:40;;;;;;;11.05;6.15;;;;;;;;;;5034245;28;20187;-80
2022/04/04 05:13:06;;;;;;;8.70;6.07;;;;;;;;;;5033889;28;20524;-80
2022/04/04 05:15:31;;;;;;;8.85;5.90;;;;;;;;;;5034589;28;20025;-81
2022/04/04 05:17:56;;;;;;;12.88;8.32;;;;;;;;;;5033781;28;20037;-81
2022/04/04 05:20:22;;;;;;;8.88;5.82;;;;;;;;;;5017082;28;20037;-80
2022/04/04 05:22:47;;;;;;;9.70;6.25;;;;;;;;;;5034345;28;20646;-80
2022/04/04 05:25:12;;;;;;;10.70;6.30;;;;;;;;;;5034240;28;20037;-80
2022/04/04 05:27:38;;;;;;;9.05;5.60;;;;;;;;;;5035120;28;20098;-82
2022/04/04 05:30:04;;;;;;;12.55;7.32;;;;;;;;;;5034644;28;20056;-80
2022/04/04 05:32:29;;;;;;;9.45;5.65;;;;;;;;;;5033088;28;20038;-81
2022/04/04 05:34:54;;;;;;;9.05;6.20;;;;;;;;;;5033734;28;20041;-81
2022/04/04 05:37:19;;;;;;;8.18;5.78;;;;;;;;;;5033472;28;20040;-80
2022/04/04 05:39:45;;;;;;;10.45;6.05;;;;;;;;;;5032646;28;20069;-81
2022/04/04 05:42:10;;;;;;;8.55;5.88;;;;;;;;;;5033962;28;20488;-81
2022/04/04 05:44:35;;;;;;;10.65;5.88;;;;;;;;;;5033569;28;20134;-80
2022/04/04 05:47:00;;;;;;;10.00;6.13;;;;;;;;;;5033053;28;20040;-81
2022/04/04 05:49:26;;;;;;;12.13;6.10;;;;;;;;;;5034621;28;20045;-80
2022/04/04 05:51:51;;;;;;;8.63;5.97;;;;;;;;;;5033023;28;20029;-80
2022/04/04 05:54:16;;;;;;;14.32;8.30;;;;;;;;;;5033339;28;20033;-80
2022/04/04 05:56:44;;;;;;;27.58;17.80;;;;;;;;;;5034009;28;20509;-80
2022/04/04 05:59:09;;;;;;;38.55;24.00;;;;;;;;;;5034045;28;20056;-80
2022/04/04 06:01:35;;;;;;;14.45;8.75;;;;;;;;;;5032749;28;20481;-80
2022/04/04 06:04:00;;;;;;;12.57;7.68;;;;;;;;;;5032669;28;20037;-80
2022/04/04 06:06:25;;;;;;;9.82;6.50;;;;;;;;;;5032780;28;20025;-81
2022/04/04 06:08:51;;;;;;;11.10;6.43;;;;;;;;;;5032598;28;20151;-80
2022/04/04 06:11:16;;;;;;;10.10;6.28;;;;;;;;;;5032525;28;20393;-80
2022/04/04 06:13:42;;;;;;;13.00;7.13;;;;;;;;;;5034123;28;20068;-80
2022/04/04 06:16:09;;;;;;;11.15;6.78;;;;;;;;;;5033971;28;20112;-81
2022/04/04 06:18:35;;;;;;;10.30;6.72;;;;;;;;;;5033727;28;20025;-80
2022/04/04 06:21:02;;;;;;;9.45;6.57;;;;;;;;;;5016286;28;20124;-80
2022/04/04 06:23:28;;;;;;;11.50;6.32;;;;;;;;;;5033591;28;20228;-80
2022/04/04 06:25:53;;;;;;;10.25;6.57;;;;;;;;;;5033437;28;20593;-80
2022/04/04 06:28:18;;;;;;;11.35;7.10;;;;;;;;;;5033175;28;20048;-80
2022/04/04 06:30:44;;;;;;;11.75;7.72;;;;;;;;;;5034324;28;20028;-80
2022/04/04 06:33:09;;;;;;;13.50;7.45;;;;;;;;;;5033689;28;20123;-80
2022/04/04 06:35:35;;;;;;;11.23;7.15;;;;;;;;;;5033244;28;20116;-80
2022/04/04 06:38:01;;;;;;;18.60;10.43;;;;;;;;;;5034569;28;20060;-81
2022/04/04 06:40:27;;;;;;;15.80;9.88;;;;;;;;;;5034358;28;20091;-79
2022/04/04 06:42:52;;;;;;;17.33;10.90;;;;;;;;;;5032375;28;20026;-79
2022/04/04 06:45:17;;;;;;;16.83;9.35;;;;;;;;;;5032186;28;20037;-80
2022/04/04 06:47:42;;;;;;;11.75;7.40;;;;;;;;;;5033493;28;20517;-81
2022/04/04 06:50:08;;;;;;;11.77;8.00;;;;;;;;;;5032380;28;20033;-80
2022/04/04 06:52:33;;;;;;;12.13;7.60;;;;;;;;;;5032497;28;20097;-80
2022/04/04 06:54:59;;;;;;;14.25;9.05;;;;;;;;;;5032152;28;20041;-80
2022/04/04 06:57:25;;;;;;;16.40;9.32;;;;;;;;;;5033350;28;20038;-80
2022/04/04 06:59:50;;;;;;;13.75;7.60;;;;;;;;;;5035683;28;20040;-80
2022/04/04 07:02:15;;;;;;;13.35;7.75;;;;;;;;;;5036900;28;20021;-79
2022/04/04 07:04:41;;;;;;;12.80;7.22;;;;;;;;;;5034435;28;20541;-80
2022/04/04 07:07:06;;;;;;;9.73;6.78;;;;;;;;;;5036470;28;20044;-81
2022/04/04 07:09:32;;;;;;;11.15;6.70;;;;;;;;;;5035429;28;20038;-82
2022/04/04 07:11:57;;;;;;;8.35;6.18;;;;;;;;;;5019638;28;20053;-81
2022/04/04 07:14:24;;;;;;;14.65;6.65;;;;;;;;;;5036798;28;20064;-80
2022/04/04 07:16:52;;;;;;;8.95;6.32;;;;;;;;;;5037167;28;20026;-81
2022/04/04 07:19:17;;;;;;;9.82;6.65;;;;;;;;;;5035953;28;20132;-81
2022/04/04 07:21:43;;;;;;;10.23;6.47;;;;;;;;;;5036243;28;20026;-82
2022/04/04 07:24:08;;;;;;;12.95;7.22;;;;;;;;;;5036328;28;20528;-81
2022/04/04 07:26:33;;;;;;;8.25;5.95;;;;;;;;;;5035684;28;20479;-80
2022/04/04 07:28:58;;;;;;;14.52;7.03;;;;;;;;;;5035634;28;20045;-81
2022/04/04 07:31:24;;;;;;;11.20;6.38;;;;;;;;;;5036241;28;20127;-81
2022/04/04 07:33:49;;;;;;;8.73;6.20;;;;;;;;;;5035304;28;20041;-81
2022/04/04 07:36:14;;;;;;;10.85;6.18;;;;;;;;;;5036634;28;20501;-84
2022/04/04 07:38:40;;;;;;;9.43;6.50;;;;;;;;;;5037179;28;20044;-83
2022/04/04 07:41:05;;;;;;;9.30;6.07;;;;;;;;;;5035461;28;20508;-81
2022/04/04 07:43:30;;;;;;;9.15;6.25;;;;;;;;;;5036636;28;20085;-81
2022/04/04 07:45:56;;;;;;;10.73;7.13;;;;;;;;;;5036577;28;20112;-81
2022/04/04 07:48:21;;;;;;;10.73;6.78;;;;;;;;;;5035538;28;20124;-81
2022/04/04 07:50:46;;;;;;;12.10;7.00;;;;;;;;;;5034517;28;20025;-80
2022/04/04 07:53:12;;;;;;;10.32;6.75;;;;;;;;;;5036761;28;20479;-80
2022/04/04 07:55:38;;;;;;;11.27;7.18;;;;;;;;;;5036260;28;20034;-80
2022/04/04 07:58:03;;;;;;;10.57;6.90;;;;;;;;;;5036364;28;20108;-80
2022/04/04 08:00:28;;;;;;;11.30;6.88;;;;;;;;;;5036294;28;20493;-81
2022/04/04 08:02:54;;;;;;;11.15;7.10;;;;;;;;;;5036628;28;20101;-81
2022/04/04 08:05:19;;;;;;;11.10;6.63;;;;;;;;;;5035380;28;20524;-80
2022/04/04 08:07:47;;;;;;;17.77;9.05;;;;;;;;;;5035356;28;20076;-82
2022/04/04 08:10:13;;;;;;;13.60;7.85;;;;;;;;;;5035002;28;20486;-81
2022/04/04 08:12:38;;;;;;;11.30;7.18;;;;;;;;;;5035726;28;20032;-80
2022/04/04 08:15:03;;;;;;;10.15;6.57;;;;;;;;;;5035226;28;20039;-80
2022/04/04 08:17:29;;;;;;;10.07;6.68;;;;;;;;;;5035315;28;20115;-81
2022/04/04 08:19:54;;;;;;;10.55;7.13;;;;;;;;;;5017813;28;20402;-81
2022/04/04 08:22:20;;;;;;;11.02;6.68;;;;;;;;;;5035418;28;20116;-81
2022/04/04 08:24:45;;;;;;;10.75;6.88;;;;;;;;;;5036305;28;20090;-81
2022/04/04 08:27:10;;;;;;;11.02;6.50;;;;;;;;;;5036714;28;20501;-81
2022/04/04 08:29:36;;;;;;;10.13;6.15;;;;;;;;;;5037895;28;20431;-81
2022/04/04 08:32:01;;;;;;;9.23;5.65;;;;;;;;;;5043175;28;20108;-81
2022/04/04 08:34:28;;;;;;;9.18;6.43;;;;;;;;;;5043182;28;20045;-82
2022/04/04 08:36:53;;;;;;;7.63;4.90;;;;;;;;;;5040964;28;20397;-81
2022/04/04 08:39:19;;;;;;;9.60;5.63;;;;;;;;;;5035501;28;20494;-82
2022/04/04 08:41:44;;;;;;;8.55;5.95;;;;;;;;;;5035370;28;20045;-80
2022/04/04 08:44:09;;;;;;;9.60;5.63;;;;;;;;;;5034785;28;20025;-80
2022/04/04 08:46:34;;;;;;;13.52;6.63;;;;;;;;;;5034301;28;20494;-80
2022/04/04 08:49:00;;;;;;;10.20;6.50;;;;;;;;;;5035447;28;20053;-81
2022/04/04 08:51:25;;;;;;;10.73;5.53;;;;;;;;;;5035814;28;20037;-81
2022/04/04 08:53:50;;;;;;;6.75;5.07;;;;;;;;;;5034857;28;20045;-81
2022/04/04 08:56:17;;;;;;;9.80;5.38;;;;;;;;;;5035175;28;20041;-82
2022/04/04 08:58:43;;;;;;;7.40;5.50;;;;;;;;;;5035023;28;20166;-81
2022/04/04 09:01:08;;;;;;;7.55;5.60;;;;;;;;;;5035054;28;20087;-81
2022/04/04 09:03:34;;;;;;;7.95;5.80;;;;;;;;;;5034457;28;20068;-81
2022/04/04 09:05:59;;;;;;;8.15;5.70;;;;;;;;;;5033280;28;20038;-81
2022/04/04 09:08:24;;;;;;;8.82;6.50;;;;;;;;;;5033849;28;20081;-80
2022/04/04 09:10:50;;;;;;;9.18;6.10;;;;;;;;;;5034440;28;20513;-81
2022/04/04 09:13:15;;;;;;;9.15;6.15;;;;;;;;;;5035002;28;20041;-81
2022/04/04 09:15:41;;;;;;;12.27;6.15;;;;;;;;;;5034053;28;20029;-81
2022/04/04 09:18:06;;;;;;;11.15;5.78;;;;;;;;;;5033588;28;20065;-81
2022/04/04 09:20:31;;;;;;;13.77;5.90;;;;;;;;;;5033232;28;20480;-81
2022/04/04 09:22:56;;;;;;;9.77;5.90;;;;;;;;;;5033201;28;20033;-81
2022/04/04 09:25:22;;;;;;;12.07;5.85;;;;;;;;;;5034136;28;20034;-81
2022/04/04 09:27:47;;;;;;;9.18;6.00;;;;;;;;;;5034545;28;20080;-81
2022/04/04 09:30:13;;;;;;;8.57;6.13;;;;;;;;;;5033374;28;20038;-81
2022/04/04 09:32:38;;;;;;;9.07;5.80;;;;;;;;;;5034237;28;20500;-81
2022/04/04 09:35:11;;;;;;;8.70;5.47;;;;;;;;;;5034258;28;20037;-80
2022/04/04 09:37:36;;;;;;;8.50;5.55;;;;;;;;;;5034822;28;20057;-80
2022/04/04 09:40:02;;;;;;;7.90;5.80;;;;;;;;;;5034042;28;20045;-82
2022/04/04 09:42:28;;;;;;;7.50;5.53;;;;;;;;;;5034290;28;20041;-80
2022/04/04 09:44:53;;;;;;;11.10;6.82;;;;;;;;;;5032431;28;20041;-81
2022/04/04 09:47:19;;;;;;;9.55;6.47;;;;;;;;;;5032776;28;20025;-81
2022/04/04 09:49:44;;;;;;;8.18;6.00;;;;;;;;;;5034281;28;20485;-81
2022/04/04 09:52:09;;;;;;;9.57;6.60;;;;;;;;;;5033864;28;20095;-81
2022/04/04 09:54:34;;;;;;;11.30;7.10;;;;;;;;;;5033911;28;20048;-81
2022/04/04 09:57:00;;;;;;;8.57;5.80;;;;;;;;;;5033047;28;20095;-81
2022/04/04 09:59:25;;;;;;;10.00;6.50;;;;;;;;;;5032785;28;20485;-83
2022/04/04 10:01:50;;;;;;;10.45;6.50;;;;;;;;;;5034161;28;20041;-80
2022/04/04 10:04:16;;;;;;;10.40;6.90;;;;;;;;;;5033595;28;20095;-81
2022/04/04 10:06:41;;;;;;;10.77;7.18;;;;;;;;;;5031651;28;20029;-80
2022/04/04 10:09:07;;;;;;;12.15;7.50;;;;;;;;;;5034072;28;20037;-80
2022/04/04 10:11:34;;;;;;;10.48;7.55;;;;;;;;;;5034314;28;20124;-81
2022/04/04 10:13:59;;;;;;;11.55;7.35;;;;;;;;;;5033545;28;20052;-81
2022/04/04 10:16:25;;;;;;;11.75;7.40;;;;;;;;;;5034110;28;20037;-81
2022/04/04 10:18:50;;;;;;;11.38;7.13;;;;;;;;;;5033862;28;20041;-81
2022/04/04 10:21:15;;;;;;;11.70;7.47;;;;;;;;;;5033997;28;20044;-82
2022/04/04 10:23:41;;;;;;;12.23;8.15;;;;;;;;;;5033716;28;20033;-82
2022/04/04 10:26:09;;;;;;;12.40;7.18;;;;;;;;;;5033855;28;20037;-82
2022/04/04 10:28:34;;;;;;;11.63;7.38;;;;;;;;;;5034217;28;20033;-82
2022/04/04 10:30:59;;;;;;;10.40;7.00;;;;;;;;;;5033761;28;20120;-81
2022/04/04 10:33:24;;;;;;;12.63;7.50;;;;;;;;;;5033248;28;20017;-82
2022/04/04 10:35:50;;;;;;;11.90;7.68;;;;;;;;;;5032314;28;20478;-82
2022/04/04 10:38:16;;;;;;;11.68;7.50;;;;;;;;;;5032414;28;20077;-82
2022/04/04 10:40:41;;;;;;;11.70;7.32;;;;;;;;;;5033747;28;20040;-81
2022/04/04 10:43:06;;;;;;;12.52;8.30;;;;;;;;;;5032199;28;20048;-81
2022/04/04 10:45:31;;;;;;;11.20;7.53;;;;;;;;;;5032309;28;20049;-81
2022/04/04 10:47:56;;;;;;;11.35;7.15;;;;;;;;;;5033739;28;20037;-81
2022/04/04 10:50:22;;;;;;;11.55;7.10;;;;;;;;;;5032202;28;20041;-81
2022/04/04 10:52:47;;;;;;;10.95;6.68;;;;;;;;;;5031897;28;20033;-81
2022/04/04 10:55:12;;;;;;;13.15;6.63;;;;;;;;;;5033415;28;20069;-81
2022/04/04 10:57:38;;;;;;;9.05;6.65;;;;;;;;;;5033322;28;20039;-81
2022/04/04 11:00:03;;;;;;;10.02;6.90;;;;;;;;;;5033573;28;20033;-82
2022/04/04 11:02:28;;;;;;;9.93;6.88;;;;;;;;;;5034007;28;20441;-81
2022/04/04 11:07:38;;;;;;;10.80;7.05;;;;;;;;;;5034031;28;20539;-81
2022/04/04 11:10:06;;;;;;;11.57;6.97;;;;;;;;;;5033268;28;20022;-81
2022/04/04 11:12:33;;;;;;;11.52;7.07;;;;;;;;;;5033948;28;20072;-81
2022/04/04 11:15:00;;;;;;;10.68;6.90;;;;;;;;;;5032089;28;20029;-81
2022/04/04 11:17:38;;;;;;;12.63;7.32;;;;;;;;;;5015714;28;20033;-81
2022/04/04 11:20:21;;;;;;;10.93;7.43;;;;;;;;;;5033855;28;20037;-81
2022/04/04 11:22:51;;;;;;;10.57;6.97;;;;;;;;;;5033806;28;20057;-82
2022/04/04 11:25:16;;;;;;;11.35;7.07;;;;;;;;;;5032720;28;20029;-82
2022/04/04 11:27:47;;;;;;;10.90;7.13;;;;;;;;;;5032321;28;20436;-83
2022/04/04 11:30:16;;;;;;;11.90;7.00;;;;;;;;;;5031552;28;20026;-81
2022/04/04 11:32:41;;;;;;;10.75;7.40;;;;;;;;;;5031468;28;20034;-81
2022/04/04 11:35:06;;;;;;;9.45;6.90;;;;;;;;;;5030982;28;20098;-81
2022/04/04 11:37:32;;;;;;;11.63;6.95;;;;;;;;;;5032203;28;20034;-81
2022/04/04 11:40:03;;;;;;;10.30;7.18;;;;;;;;;;5031987;28;20045;-82
2022/04/04 11:42:28;;;;;;;11.48;6.97;;;;;;;;;;5033474;28;20065;-82
2022/04/04 11:44:53;;;;;;;10.02;7.05;;;;;;;;;;5034672;28;20025;-82
2022/04/04 11:47:19;;;;;;;12.20;7.43;;;;;;;;;;5037096;28;20056;-82
2022/04/04 11:49:44;;;;;;;10.05;6.70;;;;;;;;;;5035779;28;20045;-82
2022/04/04 11:52:14;;;;;;;12.63;7.45;;;;;;;;;;5036973;28;20026;-82
2022/04/04 11:54:40;;;;;;;10.20;6.85;;;;;;;;;;5034959;28;20033;-83
2022/04/04 11:57:05;;;;;;;10.50;7.00;;;;;;;;;;5036275;28;20037;-80
2022/04/04 11:59:30;;;;;;;10.05;6.72;;;;;;;;;;5035962;28;20398;-80
2022/04/04 12:01:55;;;;;;;9.60;6.97;;;;;;;;;;5036174;28;20033;-81
2022/04/04 12:04:21;;;;;;;10.70;7.18;;;;;;;;;;5035674;28;20048;-81
2022/04/04 12:06:47;;;;;;;9.88;6.35;;;;;;;;;;5033872;28;20075;-81
2022/04/04 12:09:13;;;;;;;9.20;6.60;;;;;;;;;;5035257;28;20040;-80
2022/04/04 12:11:38;;;;;;;9.48;6.95;;;;;;;;;;5035404;28;20033;-81
2022/04/04 12:14:04;;;;;;;7.97;6.18;;;;;;;;;;5034174;28;20406;-80
2022/04/04 12:16:30;;;;;;;9.70;6.55;;;;;;;;;;5036134;28;20132;-81
2022/04/04 12:18:55;;;;;;;9.00;6.57;;;;;;;;;;5036021;28;20041;-80
2022/04/04 12:21:21;;;;;;;10.38;6.32;;;;;;;;;;5034821;28;20033;-81
2022/04/04 12:26:30;;;;;;;11.25;7.50;;;;;;;;;;5034351;28;20041;-81
2022/04/04 12:28:56;;;;;;;9.07;6.72;;;;;;;;;;5035554;28;20040;-81
2022/04/04 12:31:21;;;;;;;12.98;7.68;;;;;;;;;;5034558;28;20029;-81
2022/04/04 12:33:47;;;;;;;11.73;8.45;;;;;;;;;;5034176;28;20171;-80
2022/04/04 12:36:12;;;;;;;11.57;7.30;;;;;;;;;;5033297;28;20029;-80
2022/04/04 12:38:37;;;;;;;10.82;7.50;;;;;;;;;;5033617;28;20396;-80
2022/04/04 12:41:03;;;;;;;9.32;7.10;;;;;;;;;;5034514;28;20033;-80
2022/04/04 12:43:28;;;;;;;9.95;7.30;;;;;;;;;;5034748;28;20041;-81
2022/04/04 12:45:53;;;;;;;13.40;7.32;;;;;;;;;;5033258;28;20107;-81
2022/04/04 12:48:18;;;;;;;10.75;7.25;;;;;;;;;;5035156;28;20117;-81
2022/04/04 12:50:44;;;;;;;9.68;7.20;;;;;;;;;;5035129;28;20402;-81
2022/04/04 12:53:09;;;;;;;11.52;7.25;;;;;;;;;;5033700;28;20106;-81
2022/04/04 12:55:34;;;;;;;10.45;6.93;;;;;;;;;;5033389;28;20034;-80
2022/04/04 12:58:00;;;;;;;11.95;7.38;;;;;;;;;;5034266;28;20033;-80
2022/04/04 13:00:27;;;;;;;12.68;7.15;;;;;;;;;;5035561;28;20159;-81
2022/04/04 13:02:52;;;;;;;10.02;7.25;;;;;;;;;;5035312;28;20037;-81
2022/04/04 13:05:18;;;;;;;10.57;7.35;;;;;;;;;;5033596;28;20052;-80
2022/04/04 13:07:43;;;;;;;10.13;7.40;;;;;;;;;;5034726;28;20049;-81
2022/04/04 13:10:10;;;;;;;9.48;7.25;;;;;;;;;;5034860;28;20137;-81
2022/04/04 13:12:38;;;;;;;11.05;7.82;;;;;;;;;;5035412;28;20513;-80
2022/04/04 13:15:03;;;;;;;12.45;8.07;;;;;;;;;;5043905;28;20033;-81
2022/04/04 13:17:28;;;;;;;12.20;8.48;;;;;;;;;;5039748;28;20044;-81
2022/04/04 13:19:54;;;;;;;11.02;7.38;;;;;;;;;;5039779;28;20033;-81
2022/04/04 13:22:19;;;;;;;12.05;7.53;;;;;;;;;;5037658;28;20489;-81
2022/04/04 13:24:44;;;;;;;10.05;7.15;;;;;;;;;;5036382;28;20033;-81
2022/04/04 13:27:10;;;;;;;10.75;7.88;;;;;;;;;;5035911;28;20442;-81
2022/04/04 13:29:35;;;;;;;10.57;7.38;;;;;;;;;;5034264;28;20033;-81
2022/04/04 13:32:01;;;;;;;10.95;7.88;;;;;;;;;;5016564;28;20037;-81
2022/04/04 13:34:26;;;;;;;10.82;7.65;;;;;;;;;;5016157;28;20033;-81
2022/04/04 13:36:51;;;;;;;10.85;7.30;;;;;;;;;;5033499;28;20064;-81
2022/04/04 13:39:17;;;;;;;9.73;7.38;;;;;;;;;;5034369;28;20038;-81
2022/04/04 13:41:42;;;;;;;10.57;7.60;;;;;;;;;;5034195;28;20493;-81
2022/04/04 13:44:08;;;;;;;14.20;8.00;;;;;;;;;;5033801;28;20213;-80
2022/04/04 13:46:33;;;;;;;10.15;7.40;;;;;;;;;;5033914;28;20025;-81
2022/04/04 13:48:58;;;;;;;10.70;6.90;;;;;;;;;;5032196;28;20104;-81
2022/04/04 13:51:25;;;;;;;8.90;6.78;;;;;;;;;;5033434;28;20044;-81
2022/04/04 13:53:50;;;;;;;9.35;7.13;;;;;;;;;;5032313;28;20029;-81
2022/04/04 13:56:18;;;;;;;10.98;7.15;;;;;;;;;;5032050;28;20029;-81
2022/04/04 13:58:43;;;;;;;11.68;7.80;;;;;;;;;;5033606;28;20048;-80
2022/04/04 14:01:08;;;;;;;11.02;7.43;;;;;;;;;;5032501;28;20037;-80
2022/04/04 14:03:33;;;;;;;11.57;7.82;;;;;;;;;;5033645;28;20041;-80
2022/04/04 14:06:00;;;;;;;10.93;7.45;;;;;;;;;;5033246;28;20037;-81
2022/04/04 14:08:25;;;;;;;9.13;6.55;;;;;;;;;;5033324;28;20405;-82
2022/04/04 14:10:54;;;;;;;9.40;6.80;;;;;;;;;;5033286;28;20121;-81
2022/04/04 14:13:19;;;;;;;10.00;7.20;;;;;;;;;;5048638;22;20041;-82
2022/04/04 14:15:44;;;;;;;10.25;7.35;;;;;;;;;;5034924;28;20117;-83
2022/04/04 14:18:10;;;;;;;10.43;7.35;;;;;;;;;;5036151;28;20096;-81
2022/04/04 14:20:36;;;;;;;9.73;6.95;;;;;;;;;;5034043;28;20044;-81
2022/04/04 14:23:01;;;;;;;10.02;6.88;;;;;;;;;;5037427;28;20036;-82
2022/04/04 14:25:26;;;;;;;10.43;7.45;;;;;;;;;;5037353;28;20040;-81
2022/04/04 14:27:53;;;;;;;10.68;7.38;;;;;;;;;;5037103;28;20127;-81
2022/04/04 14:30:18;;;;;;;10.80;7.28;;;;;;;;;;5035891;28;20045;-81